Fes-Saiss Airport

Airport
ICAO code: 
GMFF
IATA Code: 
FEZ
Summary
ICAO Region: 
AFI
Territory: 
Location: 
Oulad Tayeb, Fes-Meknes region
Serving: 
Fez
Elevation: 
1900 ft
Coordinates: 
Aerial View: 
33° 55' 38.278" N, 4° 58' 40.656" W
Metar
Observation
GMFF 241730Z 07005KT 9999 SCT033 SCT100 14/04 Q1021 NOSIG
Station
Fes-Sais
Date/Time
2022-01-24 17:30:00
Wind direction
70°
Wind speed
05 kts
Lowest cloud amount
scattered clouds
Temperature
14°C
Dew point
4°C
Humidity
50%
QNH
1021 hPa
Weather condition
n/a

International airport serving Fez, the capital city of the Fès-Boulemane region in Morocco.

Climatology

Warm mediterranean climate (Köppen climate classification Csa)

Runways

Designator Length Width Surface Rops
9/27 3200 45 ASP Yes/Yes
Airport map: 
Aerial View: 

Accidents and Serious Incidents at or in the vicinity of GMFF

SKYbrary Partners:

Safety knowledge contributed by: